<?xml version="1.0" encoding="UTF-8" standalone="no" ?>
<gpx xmlns="http://www.topografix.com/GPX/1/1" xmlns:xsi="http://www.w3.org/2001/XMLSchema-instance" xsi:schemaLocation="http://www.topografix.com/GPX/1/1 http://www.topografix.com/GPX/1/1/gpx.xsd" version="1.1" creator="VisuGPX - https://www.visugpx.com">
  <metadata>
    <name>variante a ma rando cool </name>
    <desc><![CDATA[une variante a ma rando cool au depart d'Arbonne ]]></desc>
  </metadata>
  <trk>
    <name><![CDATA[12340296-variante a ma rando cool ]]></name>
    <trkseg>
      <trkpt lat="48.38767" lon="2.5621">
        <ele>78</ele>
        <time>2020-12-12T18:08:42Z</time>
      </trkpt>
      <trkpt lat="48.38764" lon="2.56204">
        <ele>79</ele>
        <time>2020-12-12T18:08:49Z</time>
      </trkpt>
      <trkpt lat="48.3876" lon="2.56189">
        <ele>79</ele>
        <time>2020-12-12T18:09:03Z</time>
      </trkpt>
      <trkpt lat="48.3876" lon="2.5618">
        <ele>79</ele>
        <time>2020-12-12T18:09:11Z</time>
      </trkpt>
      <trkpt lat="48.3874" lon="2.56252">
        <ele>79</ele>
        <time>2020-12-12T18:10:20Z</time>
      </trkpt>
      <trkpt lat="48.38709" lon="2.56327">
        <ele>81</ele>
        <time>2020-12-12T18:11:38Z</time>
      </trkpt>
      <trkpt lat="48.38704" lon="2.56356">
        <ele>82</ele>
        <time>2020-12-12T18:12:05Z</time>
      </trkpt>
      <trkpt lat="48.38699" lon="2.56368">
        <ele>82</ele>
        <time>2020-12-12T18:12:18Z</time>
      </trkpt>
      <trkpt lat="48.38704" lon="2.56356">
        <ele>82</ele>
        <time>2020-12-12T18:12:30Z</time>
      </trkpt>
      <trkpt lat="48.38709" lon="2.56327">
        <ele>81</ele>
        <time>2020-12-12T18:12:57Z</time>
      </trkpt>
      <trkpt lat="48.38702" lon="2.56336">
        <ele>81</ele>
        <time>2020-12-12T18:13:09Z</time>
      </trkpt>
      <trkpt lat="48.3867" lon="2.5636">
        <ele>81</ele>
        <time>2020-12-12T18:13:57Z</time>
      </trkpt>
      <trkpt lat="48.38642" lon="2.56395">
        <ele>82</ele>
        <time>2020-12-12T18:14:45Z</time>
      </trkpt>
      <trkpt lat="48.38633" lon="2.56404">
        <ele>83</ele>
        <time>2020-12-12T18:15:00Z</time>
      </trkpt>
      <trkpt lat="48.38617" lon="2.56416">
        <ele>83</ele>
        <time>2020-12-12T18:15:23Z</time>
      </trkpt>
      <trkpt lat="48.38598" lon="2.56426">
        <ele>84</ele>
        <time>2020-12-12T18:15:50Z</time>
      </trkpt>
      <trkpt lat="48.38548" lon="2.56448">
        <ele>88</ele>
        <time>2020-12-12T18:17:00Z</time>
      </trkpt>
      <trkpt lat="48.38505" lon="2.56458">
        <ele>92</ele>
        <time>2020-12-12T18:17:58Z</time>
      </trkpt>
      <trkpt lat="48.3849" lon="2.56475">
        <ele>93</ele>
        <time>2020-12-12T18:18:23Z</time>
      </trkpt>
      <trkpt lat="48.3848" lon="2.56492">
        <ele>94</ele>
        <time>2020-12-12T18:18:43Z</time>
      </trkpt>
      <trkpt lat="48.38425" lon="2.56599">
        <ele>99</ele>
        <time>2020-12-12T18:20:43Z</time>
      </trkpt>
      <trkpt lat="48.38402" lon="2.56633">
        <ele>102</ele>
        <time>2020-12-12T18:21:26Z</time>
      </trkpt>
      <trkpt lat="48.38376" lon="2.56696">
        <ele>104</ele>
        <time>2020-12-12T18:22:32Z</time>
      </trkpt>
      <trkpt lat="48.38369" lon="2.56705">
        <ele>104</ele>
        <time>2020-12-12T18:22:44Z</time>
      </trkpt>
      <trkpt lat="48.38348" lon="2.56728">
        <ele>104</ele>
        <time>2020-12-12T18:23:19Z</time>
      </trkpt>
      <trkpt lat="48.38312" lon="2.56774">
        <ele>106</ele>
        <time>2020-12-12T18:24:22Z</time>
      </trkpt>
      <trkpt lat="48.38286" lon="2.56824">
        <ele>110</ele>
        <time>2020-12-12T18:25:18Z</time>
      </trkpt>
      <trkpt lat="48.38275" lon="2.56854">
        <ele>111</ele>
        <time>2020-12-12T18:25:48Z</time>
      </trkpt>
      <trkpt lat="48.3826" lon="2.56922">
        <ele>114</ele>
        <time>2020-12-12T18:26:52Z</time>
      </trkpt>
      <trkpt lat="48.38219" lon="2.56941">
        <ele>116</ele>
        <time>2020-12-12T18:27:49Z</time>
      </trkpt>
      <trkpt lat="48.38166" lon="2.56913">
        <ele>121</ele>
        <time>2020-12-12T18:29:04Z</time>
      </trkpt>
      <trkpt lat="48.38143" lon="2.56911">
        <ele>122</ele>
        <time>2020-12-12T18:29:35Z</time>
      </trkpt>
      <trkpt lat="48.38129" lon="2.56903">
        <ele>122</ele>
        <time>2020-12-12T18:29:55Z</time>
      </trkpt>
      <trkpt lat="48.3811" lon="2.56915">
        <ele>122</ele>
        <time>2020-12-12T18:30:22Z</time>
      </trkpt>
      <trkpt lat="48.38096" lon="2.56907">
        <ele>123</ele>
        <time>2020-12-12T18:30:42Z</time>
      </trkpt>
      <trkpt lat="48.38083" lon="2.5689">
        <ele>122</ele>
        <time>2020-12-12T18:31:05Z</time>
      </trkpt>
      <trkpt lat="48.38069" lon="2.56858">
        <ele>122</ele>
        <time>2020-12-12T18:31:39Z</time>
      </trkpt>
      <trkpt lat="48.38056" lon="2.56815">
        <ele>121</ele>
        <time>2020-12-12T18:32:21Z</time>
      </trkpt>
      <trkpt lat="48.38064" lon="2.56711">
        <ele>119</ele>
        <time>2020-12-12T18:33:54Z</time>
      </trkpt>
      <trkpt lat="48.38046" lon="2.56695">
        <ele>119</ele>
        <time>2020-12-12T18:34:22Z</time>
      </trkpt>
      <trkpt lat="48.3802" lon="2.5668">
        <ele>119</ele>
        <time>2020-12-12T18:34:59Z</time>
      </trkpt>
      <trkpt lat="48.3799" lon="2.56713">
        <ele>119</ele>
        <time>2020-12-12T18:35:48Z</time>
      </trkpt>
      <trkpt lat="48.37958" lon="2.56762">
        <ele>120</ele>
        <time>2020-12-12T18:36:49Z</time>
      </trkpt>
      <trkpt lat="48.37925" lon="2.56829">
        <ele>121</ele>
        <time>2020-12-12T18:38:03Z</time>
      </trkpt>
      <trkpt lat="48.37856" lon="2.56882">
        <ele>121</ele>
        <time>2020-12-12T18:39:47Z</time>
      </trkpt>
      <trkpt lat="48.37778" lon="2.56861">
        <ele>124</ele>
        <time>2020-12-12T18:41:32Z</time>
      </trkpt>
      <trkpt lat="48.3776" lon="2.56797">
        <ele>126</ele>
        <time>2020-12-12T18:42:34Z</time>
      </trkpt>
      <trkpt lat="48.3773" lon="2.56776">
        <ele>126</ele>
        <time>2020-12-12T18:43:18Z</time>
      </trkpt>
      <trkpt lat="48.37666" lon="2.56678">
        <ele>121</ele>
        <time>2020-12-12T18:45:20Z</time>
      </trkpt>
      <trkpt lat="48.37663" lon="2.56638">
        <ele>119</ele>
        <time>2020-12-12T18:45:56Z</time>
      </trkpt>
      <trkpt lat="48.37686" lon="2.56622">
        <ele>120</ele>
        <time>2020-12-12T18:46:29Z</time>
      </trkpt>
      <trkpt lat="48.37695" lon="2.56563">
        <ele>119</ele>
        <time>2020-12-12T18:47:23Z</time>
      </trkpt>
      <trkpt lat="48.377" lon="2.56514">
        <ele>120</ele>
        <time>2020-12-12T18:48:07Z</time>
      </trkpt>
      <trkpt lat="48.37721" lon="2.56439">
        <ele>120</ele>
        <time>2020-12-12T18:49:19Z</time>
      </trkpt>
      <trkpt lat="48.37721" lon="2.56411">
        <ele>120</ele>
        <time>2020-12-12T18:49:44Z</time>
      </trkpt>
      <trkpt lat="48.37714" lon="2.56383">
        <ele>120</ele>
        <time>2020-12-12T18:50:11Z</time>
      </trkpt>
      <trkpt lat="48.37723" lon="2.56344">
        <ele>120</ele>
        <time>2020-12-12T18:50:47Z</time>
      </trkpt>
      <trkpt lat="48.37717" lon="2.56319">
        <ele>120</ele>
        <time>2020-12-12T18:51:11Z</time>
      </trkpt>
      <trkpt lat="48.37705" lon="2.56286">
        <ele>120</ele>
        <time>2020-12-12T18:51:44Z</time>
      </trkpt>
      <trkpt lat="48.37741" lon="2.56322">
        <ele>120</ele>
        <time>2020-12-12T18:52:42Z</time>
      </trkpt>
      <trkpt lat="48.37765" lon="2.56322">
        <ele>119</ele>
        <time>2020-12-12T18:53:14Z</time>
      </trkpt>
      <trkpt lat="48.37782" lon="2.56337">
        <ele>119</ele>
        <time>2020-12-12T18:53:40Z</time>
      </trkpt>
      <trkpt lat="48.37795" lon="2.56342">
        <ele>119</ele>
        <time>2020-12-12T18:53:58Z</time>
      </trkpt>
      <trkpt lat="48.37807" lon="2.5634">
        <ele>119</ele>
        <time>2020-12-12T18:54:14Z</time>
      </trkpt>
      <trkpt lat="48.3782" lon="2.56327">
        <ele>119</ele>
        <time>2020-12-12T18:54:35Z</time>
      </trkpt>
      <trkpt lat="48.37829" lon="2.56312">
        <ele>119</ele>
        <time>2020-12-12T18:54:53Z</time>
      </trkpt>
      <trkpt lat="48.3784" lon="2.56272">
        <ele>118</ele>
        <time>2020-12-12T18:55:31Z</time>
      </trkpt>
      <trkpt lat="48.37851" lon="2.56248">
        <ele>118</ele>
        <time>2020-12-12T18:55:57Z</time>
      </trkpt>
      <trkpt lat="48.37855" lon="2.56225">
        <ele>117</ele>
        <time>2020-12-12T18:56:18Z</time>
      </trkpt>
      <trkpt lat="48.37857" lon="2.56154">
        <ele>116</ele>
        <time>2020-12-12T18:57:21Z</time>
      </trkpt>
      <trkpt lat="48.37849" lon="2.56104">
        <ele>116</ele>
        <time>2020-12-12T18:58:07Z</time>
      </trkpt>
      <trkpt lat="48.37826" lon="2.56065">
        <ele>117</ele>
        <time>2020-12-12T18:58:53Z</time>
      </trkpt>
      <trkpt lat="48.37791" lon="2.55963">
        <ele>116</ele>
        <time>2020-12-12T19:00:35Z</time>
      </trkpt>
      <trkpt lat="48.37755" lon="2.55851">
        <ele>104</ele>
        <time>2020-12-12T19:02:25Z</time>
      </trkpt>
      <trkpt lat="48.3773" lon="2.55809">
        <ele>102</ele>
        <time>2020-12-12T19:03:15Z</time>
      </trkpt>
      <trkpt lat="48.37691" lon="2.55764">
        <ele>101</ele>
        <time>2020-12-12T19:04:21Z</time>
      </trkpt>
      <trkpt lat="48.37668" lon="2.55724">
        <ele>99</ele>
        <time>2020-12-12T19:05:07Z</time>
      </trkpt>
      <trkpt lat="48.37573" lon="2.55535">
        <ele>93</ele>
        <time>2020-12-12T19:08:38Z</time>
      </trkpt>
      <trkpt lat="48.37563" lon="2.55509">
        <ele>93</ele>
        <time>2020-12-12T19:09:04Z</time>
      </trkpt>
      <trkpt lat="48.37549" lon="2.55561">
        <ele>94</ele>
        <time>2020-12-12T19:09:54Z</time>
      </trkpt>
      <trkpt lat="48.37542" lon="2.55645">
        <ele>98</ele>
        <time>2020-12-12T19:11:09Z</time>
      </trkpt>
      <trkpt lat="48.37533" lon="2.55777">
        <ele>105</ele>
        <time>2020-12-12T19:13:07Z</time>
      </trkpt>
      <trkpt lat="48.37504" lon="2.55852">
        <ele>110</ele>
        <time>2020-12-12T19:14:23Z</time>
      </trkpt>
      <trkpt lat="48.37491" lon="2.55881">
        <ele>113</ele>
        <time>2020-12-12T19:14:54Z</time>
      </trkpt>
      <trkpt lat="48.37459" lon="2.55888">
        <ele>116</ele>
        <time>2020-12-12T19:15:38Z</time>
      </trkpt>
      <trkpt lat="48.37408" lon="2.55893">
        <ele>120</ele>
        <time>2020-12-12T19:16:46Z</time>
      </trkpt>
      <trkpt lat="48.37386" lon="2.55883">
        <ele>120</ele>
        <time>2020-12-12T19:17:16Z</time>
      </trkpt>
      <trkpt lat="48.37298" lon="2.5587">
        <ele>119</ele>
        <time>2020-12-12T19:19:14Z</time>
      </trkpt>
      <trkpt lat="48.37253" lon="2.55902">
        <ele>119</ele>
        <time>2020-12-12T19:20:21Z</time>
      </trkpt>
      <trkpt lat="48.3721" lon="2.5596">
        <ele>121</ele>
        <time>2020-12-12T19:21:38Z</time>
      </trkpt>
      <trkpt lat="48.37153" lon="2.56052">
        <ele>121</ele>
        <time>2020-12-12T19:23:29Z</time>
      </trkpt>
      <trkpt lat="48.37145" lon="2.56051">
        <ele>121</ele>
        <time>2020-12-12T19:23:40Z</time>
      </trkpt>
      <trkpt lat="48.37122" lon="2.5606">
        <ele>121</ele>
        <time>2020-12-12T19:24:12Z</time>
      </trkpt>
      <trkpt lat="48.37107" lon="2.56074">
        <ele>121</ele>
        <time>2020-12-12T19:24:35Z</time>
      </trkpt>
      <trkpt lat="48.37094" lon="2.56092">
        <ele>121</ele>
        <time>2020-12-12T19:24:59Z</time>
      </trkpt>
      <trkpt lat="48.37055" lon="2.56161">
        <ele>121</ele>
        <time>2020-12-12T19:26:19Z</time>
      </trkpt>
      <trkpt lat="48.37047" lon="2.56146">
        <ele>121</ele>
        <time>2020-12-12T19:26:36Z</time>
      </trkpt>
      <trkpt lat="48.37033" lon="2.5614">
        <ele>122</ele>
        <time>2020-12-12T19:26:56Z</time>
      </trkpt>
      <trkpt lat="48.37021" lon="2.56143">
        <ele>122</ele>
        <time>2020-12-12T19:27:12Z</time>
      </trkpt>
      <trkpt lat="48.36991" lon="2.56127">
        <ele>122</ele>
        <time>2020-12-12T19:27:55Z</time>
      </trkpt>
      <trkpt lat="48.36977" lon="2.56105">
        <ele>123</ele>
        <time>2020-12-12T19:28:22Z</time>
      </trkpt>
      <trkpt lat="48.36975" lon="2.56092">
        <ele>123</ele>
        <time>2020-12-12T19:28:33Z</time>
      </trkpt>
      <trkpt lat="48.36977" lon="2.56077">
        <ele>123</ele>
        <time>2020-12-12T19:28:47Z</time>
      </trkpt>
      <trkpt lat="48.36975" lon="2.56092">
        <ele>123</ele>
        <time>2020-12-12T19:29:00Z</time>
      </trkpt>
      <trkpt lat="48.36962" lon="2.56097">
        <ele>124</ele>
        <time>2020-12-12T19:29:18Z</time>
      </trkpt>
      <trkpt lat="48.36949" lon="2.56095">
        <ele>124</ele>
        <time>2020-12-12T19:29:36Z</time>
      </trkpt>
      <trkpt lat="48.36929" lon="2.56085">
        <ele>125</ele>
        <time>2020-12-12T19:30:04Z</time>
      </trkpt>
      <trkpt lat="48.3691" lon="2.56066">
        <ele>126</ele>
        <time>2020-12-12T19:30:34Z</time>
      </trkpt>
      <trkpt lat="48.36876" lon="2.56028">
        <ele>126</ele>
        <time>2020-12-12T19:31:31Z</time>
      </trkpt>
      <trkpt lat="48.36869" lon="2.56017">
        <ele>126</ele>
        <time>2020-12-12T19:31:44Z</time>
      </trkpt>
      <trkpt lat="48.36862" lon="2.55996">
        <ele>125</ele>
        <time>2020-12-12T19:32:05Z</time>
      </trkpt>
      <trkpt lat="48.3686" lon="2.55978">
        <ele>125</ele>
        <time>2020-12-12T19:32:21Z</time>
      </trkpt>
      <trkpt lat="48.36858" lon="2.55927">
        <ele>125</ele>
        <time>2020-12-12T19:33:07Z</time>
      </trkpt>
      <trkpt lat="48.36865" lon="2.55843">
        <ele>123</ele>
        <time>2020-12-12T19:34:22Z</time>
      </trkpt>
      <trkpt lat="48.36866" lon="2.55841">
        <ele>123</ele>
        <time>2020-12-12T19:34:24Z</time>
      </trkpt>
      <trkpt lat="48.36865" lon="2.55843">
        <ele>123</ele>
        <time>2020-12-12T19:34:26Z</time>
      </trkpt>
      <trkpt lat="48.36865" lon="2.55836">
        <ele>123</ele>
        <time>2020-12-12T19:34:32Z</time>
      </trkpt>
      <trkpt lat="48.3686" lon="2.55823">
        <ele>123</ele>
        <time>2020-12-12T19:34:46Z</time>
      </trkpt>
      <trkpt lat="48.36772" lon="2.55689">
        <ele>118</ele>
        <time>2020-12-12T19:37:33Z</time>
      </trkpt>
      <trkpt lat="48.3672" lon="2.55614">
        <ele>118</ele>
        <time>2020-12-12T19:39:09Z</time>
      </trkpt>
      <trkpt lat="48.36701" lon="2.5558">
        <ele>119</ele>
        <time>2020-12-12T19:39:48Z</time>
      </trkpt>
      <trkpt lat="48.36697" lon="2.55586">
        <ele>119</ele>
        <time>2020-12-12T19:39:56Z</time>
      </trkpt>
      <trkpt lat="48.36639" lon="2.55679">
        <ele>119</ele>
        <time>2020-12-12T19:41:49Z</time>
      </trkpt>
      <trkpt lat="48.36446" lon="2.55951">
        <ele>117</ele>
        <time>2020-12-12T19:47:42Z</time>
      </trkpt>
      <trkpt lat="48.36441" lon="2.55983">
        <ele>117</ele>
        <time>2020-12-12T19:48:11Z</time>
      </trkpt>
      <trkpt lat="48.36446" lon="2.55951">
        <ele>117</ele>
        <time>2020-12-12T19:48:40Z</time>
      </trkpt>
      <trkpt lat="48.36438" lon="2.55904">
        <ele>116</ele>
        <time>2020-12-12T19:49:23Z</time>
      </trkpt>
      <trkpt lat="48.36446" lon="2.55748">
        <ele>112</ele>
        <time>2020-12-12T19:51:42Z</time>
      </trkpt>
      <trkpt lat="48.36442" lon="2.55702">
        <ele>113</ele>
        <time>2020-12-12T19:52:23Z</time>
      </trkpt>
      <trkpt lat="48.36439" lon="2.55694">
        <ele>113</ele>
        <time>2020-12-12T19:52:31Z</time>
      </trkpt>
      <trkpt lat="48.36433" lon="2.55687">
        <ele>113</ele>
        <time>2020-12-12T19:52:41Z</time>
      </trkpt>
      <trkpt lat="48.36413" lon="2.55677">
        <ele>113</ele>
        <time>2020-12-12T19:53:09Z</time>
      </trkpt>
      <trkpt lat="48.36401" lon="2.5567">
        <ele>112</ele>
        <time>2020-12-12T19:53:26Z</time>
      </trkpt>
      <trkpt lat="48.36373" lon="2.55633">
        <ele>112</ele>
        <time>2020-12-12T19:54:16Z</time>
      </trkpt>
      <trkpt lat="48.3635" lon="2.55611">
        <ele>111</ele>
        <time>2020-12-12T19:54:53Z</time>
      </trkpt>
      <trkpt lat="48.36343" lon="2.55602">
        <ele>110</ele>
        <time>2020-12-12T19:55:05Z</time>
      </trkpt>
      <trkpt lat="48.36325" lon="2.55566">
        <ele>109</ele>
        <time>2020-12-12T19:55:45Z</time>
      </trkpt>
      <trkpt lat="48.36314" lon="2.55548">
        <ele>109</ele>
        <time>2020-12-12T19:56:06Z</time>
      </trkpt>
      <trkpt lat="48.36313" lon="2.55526">
        <ele>108</ele>
        <time>2020-12-12T19:56:26Z</time>
      </trkpt>
      <trkpt lat="48.36315" lon="2.55505">
        <ele>108</ele>
        <time>2020-12-12T19:56:45Z</time>
      </trkpt>
      <trkpt lat="48.36316" lon="2.55503">
        <ele>109</ele>
        <time>2020-12-12T19:56:47Z</time>
      </trkpt>
      <trkpt lat="48.3633" lon="2.55458">
        <ele>109</ele>
        <time>2020-12-12T19:57:31Z</time>
      </trkpt>
      <trkpt lat="48.3635" lon="2.55412">
        <ele>110</ele>
        <time>2020-12-12T19:58:20Z</time>
      </trkpt>
      <trkpt lat="48.36354" lon="2.55397">
        <ele>110</ele>
        <time>2020-12-12T19:58:34Z</time>
      </trkpt>
      <trkpt lat="48.36356" lon="2.55372">
        <ele>110</ele>
        <time>2020-12-12T19:58:56Z</time>
      </trkpt>
      <trkpt lat="48.3635" lon="2.55273">
        <ele>110</ele>
        <time>2020-12-12T20:00:25Z</time>
      </trkpt>
      <trkpt lat="48.36367" lon="2.55158">
        <ele>113</ele>
        <time>2020-12-12T20:02:09Z</time>
      </trkpt>
      <trkpt lat="48.36368" lon="2.55112">
        <ele>113</ele>
        <time>2020-12-12T20:02:50Z</time>
      </trkpt>
      <trkpt lat="48.36367" lon="2.55086">
        <ele>113</ele>
        <time>2020-12-12T20:03:13Z</time>
      </trkpt>
      <trkpt lat="48.36367" lon="2.55076">
        <ele>114</ele>
        <time>2020-12-12T20:03:22Z</time>
      </trkpt>
      <trkpt lat="48.36366" lon="2.5506">
        <ele>114</ele>
        <time>2020-12-12T20:03:36Z</time>
      </trkpt>
      <trkpt lat="48.36357" lon="2.55025">
        <ele>116</ele>
        <time>2020-12-12T20:04:09Z</time>
      </trkpt>
      <trkpt lat="48.36351" lon="2.55007">
        <ele>117</ele>
        <time>2020-12-12T20:04:27Z</time>
      </trkpt>
      <trkpt lat="48.36334" lon="2.54976">
        <ele>118</ele>
        <time>2020-12-12T20:05:03Z</time>
      </trkpt>
      <trkpt lat="48.36332" lon="2.54968">
        <ele>118</ele>
        <time>2020-12-12T20:05:10Z</time>
      </trkpt>
      <trkpt lat="48.36336" lon="2.54903">
        <ele>119</ele>
        <time>2020-12-12T20:06:08Z</time>
      </trkpt>
      <trkpt lat="48.36348" lon="2.54828">
        <ele>119</ele>
        <time>2020-12-12T20:07:17Z</time>
      </trkpt>
      <trkpt lat="48.36347" lon="2.54803">
        <ele>120</ele>
        <time>2020-12-12T20:07:39Z</time>
      </trkpt>
      <trkpt lat="48.36335" lon="2.54754">
        <ele>121</ele>
        <time>2020-12-12T20:08:25Z</time>
      </trkpt>
      <trkpt lat="48.36313" lon="2.54689">
        <ele>119</ele>
        <time>2020-12-12T20:09:30Z</time>
      </trkpt>
      <trkpt lat="48.36303" lon="2.5465">
        <ele>118</ele>
        <time>2020-12-12T20:10:07Z</time>
      </trkpt>
      <trkpt lat="48.36273" lon="2.54524">
        <ele>117</ele>
        <time>2020-12-12T20:12:06Z</time>
      </trkpt>
      <trkpt lat="48.36266" lon="2.54497">
        <ele>117</ele>
        <time>2020-12-12T20:12:31Z</time>
      </trkpt>
      <trkpt lat="48.36254" lon="2.54468">
        <ele>117</ele>
        <time>2020-12-12T20:13:02Z</time>
      </trkpt>
      <trkpt lat="48.36253" lon="2.54411">
        <ele>117</ele>
        <time>2020-12-12T20:13:52Z</time>
      </trkpt>
      <trkpt lat="48.3626" lon="2.54333">
        <ele>117</ele>
        <time>2020-12-12T20:15:02Z</time>
      </trkpt>
      <trkpt lat="48.36253" lon="2.54263">
        <ele>118</ele>
        <time>2020-12-12T20:16:05Z</time>
      </trkpt>
      <trkpt lat="48.36253" lon="2.54237">
        <ele>118</ele>
        <time>2020-12-12T20:16:28Z</time>
      </trkpt>
      <trkpt lat="48.36255" lon="2.54211">
        <ele>118</ele>
        <time>2020-12-12T20:16:51Z</time>
      </trkpt>
      <trkpt lat="48.36274" lon="2.54025">
        <ele>117</ele>
        <time>2020-12-12T20:19:38Z</time>
      </trkpt>
      <trkpt lat="48.36283" lon="2.54">
        <ele>117</ele>
        <time>2020-12-12T20:20:03Z</time>
      </trkpt>
      <trkpt lat="48.36291" lon="2.53983">
        <ele>116</ele>
        <time>2020-12-12T20:20:22Z</time>
      </trkpt>
      <trkpt lat="48.36303" lon="2.53966">
        <ele>116</ele>
        <time>2020-12-12T20:20:44Z</time>
      </trkpt>
      <trkpt lat="48.36315" lon="2.53941">
        <ele>114</ele>
        <time>2020-12-12T20:21:11Z</time>
      </trkpt>
      <trkpt lat="48.36331" lon="2.53927">
        <ele>113</ele>
        <time>2020-12-12T20:21:36Z</time>
      </trkpt>
      <trkpt lat="48.36338" lon="2.53914">
        <ele>112</ele>
        <time>2020-12-12T20:21:50Z</time>
      </trkpt>
      <trkpt lat="48.36347" lon="2.53886">
        <ele>108</ele>
        <time>2020-12-12T20:22:18Z</time>
      </trkpt>
      <trkpt lat="48.36349" lon="2.53847">
        <ele>103</ele>
        <time>2020-12-12T20:22:53Z</time>
      </trkpt>
      <trkpt lat="48.36353" lon="2.53832">
        <ele>101</ele>
        <time>2020-12-12T20:23:07Z</time>
      </trkpt>
      <trkpt lat="48.36359" lon="2.53815">
        <ele>101</ele>
        <time>2020-12-12T20:23:24Z</time>
      </trkpt>
      <trkpt lat="48.36374" lon="2.53788">
        <ele>100</ele>
        <time>2020-12-12T20:23:55Z</time>
      </trkpt>
      <trkpt lat="48.36389" lon="2.53764">
        <ele>99</ele>
        <time>2020-12-12T20:24:24Z</time>
      </trkpt>
      <trkpt lat="48.36401" lon="2.53727">
        <ele>98</ele>
        <time>2020-12-12T20:25:01Z</time>
      </trkpt>
      <trkpt lat="48.36402" lon="2.53717">
        <ele>97</ele>
        <time>2020-12-12T20:25:10Z</time>
      </trkpt>
      <trkpt lat="48.36403" lon="2.53685">
        <ele>96</ele>
        <time>2020-12-12T20:25:38Z</time>
      </trkpt>
      <trkpt lat="48.364" lon="2.53662">
        <ele>96</ele>
        <time>2020-12-12T20:25:59Z</time>
      </trkpt>
      <trkpt lat="48.36379" lon="2.53645">
        <ele>96</ele>
        <time>2020-12-12T20:26:31Z</time>
      </trkpt>
      <trkpt lat="48.36348" lon="2.53601">
        <ele>95</ele>
        <time>2020-12-12T20:27:28Z</time>
      </trkpt>
      <trkpt lat="48.36322" lon="2.53539">
        <ele>97</ele>
        <time>2020-12-12T20:28:33Z</time>
      </trkpt>
      <trkpt lat="48.3632" lon="2.53443">
        <ele>97</ele>
        <time>2020-12-12T20:29:58Z</time>
      </trkpt>
      <trkpt lat="48.36324" lon="2.53421">
        <ele>97</ele>
        <time>2020-12-12T20:30:18Z</time>
      </trkpt>
      <trkpt lat="48.36362" lon="2.53331">
        <ele>91</ele>
        <time>2020-12-12T20:31:53Z</time>
      </trkpt>
      <trkpt lat="48.3639" lon="2.53348">
        <ele>91</ele>
        <time>2020-12-12T20:32:33Z</time>
      </trkpt>
      <trkpt lat="48.36444" lon="2.53368">
        <ele>91</ele>
        <time>2020-12-12T20:33:47Z</time>
      </trkpt>
      <trkpt lat="48.36451" lon="2.53368">
        <ele>91</ele>
        <time>2020-12-12T20:33:57Z</time>
      </trkpt>
      <trkpt lat="48.36458" lon="2.53355">
        <ele>90</ele>
        <time>2020-12-12T20:34:11Z</time>
      </trkpt>
      <trkpt lat="48.36467" lon="2.53356">
        <ele>90</ele>
        <time>2020-12-12T20:34:23Z</time>
      </trkpt>
      <trkpt lat="48.36473" lon="2.53321">
        <ele>88</ele>
        <time>2020-12-12T20:34:55Z</time>
      </trkpt>
      <trkpt lat="48.365" lon="2.53296">
        <ele>88</ele>
        <time>2020-12-12T20:35:38Z</time>
      </trkpt>
      <trkpt lat="48.36586" lon="2.53317">
        <ele>84</ele>
        <time>2020-12-12T20:37:34Z</time>
      </trkpt>
      <trkpt lat="48.36639" lon="2.53346">
        <ele>82</ele>
        <time>2020-12-12T20:38:49Z</time>
      </trkpt>
      <trkpt lat="48.3665" lon="2.5349">
        <ele>91</ele>
        <time>2020-12-12T20:40:58Z</time>
      </trkpt>
      <trkpt lat="48.36685" lon="2.53434">
        <ele>86</ele>
        <time>2020-12-12T20:42:06Z</time>
      </trkpt>
      <trkpt lat="48.36692" lon="2.53426">
        <ele>86</ele>
        <time>2020-12-12T20:42:18Z</time>
      </trkpt>
      <trkpt lat="48.36702" lon="2.53423">
        <ele>86</ele>
        <time>2020-12-12T20:42:31Z</time>
      </trkpt>
      <trkpt lat="48.36707" lon="2.53426">
        <ele>87</ele>
        <time>2020-12-12T20:42:39Z</time>
      </trkpt>
      <trkpt lat="48.3672" lon="2.53448">
        <ele>89</ele>
        <time>2020-12-12T20:43:05Z</time>
      </trkpt>
      <trkpt lat="48.36732" lon="2.53477">
        <ele>92</ele>
        <time>2020-12-12T20:43:35Z</time>
      </trkpt>
      <trkpt lat="48.36742" lon="2.53511">
        <ele>95</ele>
        <time>2020-12-12T20:44:08Z</time>
      </trkpt>
      <trkpt lat="48.36753" lon="2.53507">
        <ele>95</ele>
        <time>2020-12-12T20:44:23Z</time>
      </trkpt>
      <trkpt lat="48.36772" lon="2.53518">
        <ele>97</ele>
        <time>2020-12-12T20:44:50Z</time>
      </trkpt>
      <trkpt lat="48.36802" lon="2.53514">
        <ele>96</ele>
        <time>2020-12-12T20:45:30Z</time>
      </trkpt>
      <trkpt lat="48.36817" lon="2.53516">
        <ele>97</ele>
        <time>2020-12-12T20:45:50Z</time>
      </trkpt>
      <trkpt lat="48.36823" lon="2.53515">
        <ele>97</ele>
        <time>2020-12-12T20:45:58Z</time>
      </trkpt>
      <trkpt lat="48.36862" lon="2.53491">
        <ele>90</ele>
        <time>2020-12-12T20:46:55Z</time>
      </trkpt>
      <trkpt lat="48.36885" lon="2.53487">
        <ele>87</ele>
        <time>2020-12-12T20:47:26Z</time>
      </trkpt>
      <trkpt lat="48.36895" lon="2.5348">
        <ele>85</ele>
        <time>2020-12-12T20:47:40Z</time>
      </trkpt>
      <trkpt lat="48.36889" lon="2.53494">
        <ele>87</ele>
        <time>2020-12-12T20:47:55Z</time>
      </trkpt>
      <trkpt lat="48.36895" lon="2.5348">
        <ele>85</ele>
        <time>2020-12-12T20:48:10Z</time>
      </trkpt>
      <trkpt lat="48.3691" lon="2.53446">
        <ele>79</ele>
        <time>2020-12-12T20:48:46Z</time>
      </trkpt>
      <trkpt lat="48.36931" lon="2.53452">
        <ele>78</ele>
        <time>2020-12-12T20:49:15Z</time>
      </trkpt>
      <trkpt lat="48.36955" lon="2.53477">
        <ele>78</ele>
        <time>2020-12-12T20:49:54Z</time>
      </trkpt>
      <trkpt lat="48.3699" lon="2.53494">
        <ele>77</ele>
        <time>2020-12-12T20:50:43Z</time>
      </trkpt>
      <trkpt lat="48.37014" lon="2.53524">
        <ele>79</ele>
        <time>2020-12-12T20:51:24Z</time>
      </trkpt>
      <trkpt lat="48.37104" lon="2.53526">
        <ele>76</ele>
        <time>2020-12-12T20:53:24Z</time>
      </trkpt>
      <trkpt lat="48.37115" lon="2.5353">
        <ele>76</ele>
        <time>2020-12-12T20:53:39Z</time>
      </trkpt>
      <trkpt lat="48.37124" lon="2.53537">
        <ele>76</ele>
        <time>2020-12-12T20:53:53Z</time>
      </trkpt>
      <trkpt lat="48.37115" lon="2.5353">
        <ele>76</ele>
        <time>2020-12-12T20:54:06Z</time>
      </trkpt>
      <trkpt lat="48.37104" lon="2.53526">
        <ele>76</ele>
        <time>2020-12-12T20:54:22Z</time>
      </trkpt>
      <trkpt lat="48.37122" lon="2.53492">
        <ele>76</ele>
        <time>2020-12-12T20:55:00Z</time>
      </trkpt>
      <trkpt lat="48.37123" lon="2.53463">
        <ele>76</ele>
        <time>2020-12-12T20:55:26Z</time>
      </trkpt>
      <trkpt lat="48.37127" lon="2.53435">
        <ele>76</ele>
        <time>2020-12-12T20:55:51Z</time>
      </trkpt>
      <trkpt lat="48.37129" lon="2.53422">
        <ele>77</ele>
        <time>2020-12-12T20:56:03Z</time>
      </trkpt>
      <trkpt lat="48.3713" lon="2.53397">
        <ele>76</ele>
        <time>2020-12-12T20:56:25Z</time>
      </trkpt>
      <trkpt lat="48.37128" lon="2.53369">
        <ele>76</ele>
        <time>2020-12-12T20:56:50Z</time>
      </trkpt>
      <trkpt lat="48.37128" lon="2.53366">
        <ele>76</ele>
        <time>2020-12-12T20:56:53Z</time>
      </trkpt>
      <trkpt lat="48.37128" lon="2.53347">
        <ele>76</ele>
        <time>2020-12-12T20:57:10Z</time>
      </trkpt>
      <trkpt lat="48.37188" lon="2.53281">
        <ele>75</ele>
        <time>2020-12-12T20:58:49Z</time>
      </trkpt>
      <trkpt lat="48.37228" lon="2.53251">
        <ele>75</ele>
        <time>2020-12-12T20:59:49Z</time>
      </trkpt>
      <trkpt lat="48.37233" lon="2.53247">
        <ele>75</ele>
        <time>2020-12-12T20:59:56Z</time>
      </trkpt>
      <trkpt lat="48.37248" lon="2.53237">
        <ele>75</ele>
        <time>2020-12-12T21:00:18Z</time>
      </trkpt>
      <trkpt lat="48.37267" lon="2.53229">
        <ele>74</ele>
        <time>2020-12-12T21:00:44Z</time>
      </trkpt>
      <trkpt lat="48.37266" lon="2.53227">
        <ele>74</ele>
        <time>2020-12-12T21:00:47Z</time>
      </trkpt>
      <trkpt lat="48.37264" lon="2.53218">
        <ele>74</ele>
        <time>2020-12-12T21:00:55Z</time>
      </trkpt>
      <trkpt lat="48.37255" lon="2.53165">
        <ele>73</ele>
        <time>2020-12-12T21:01:43Z</time>
      </trkpt>
      <trkpt lat="48.37246" lon="2.53119">
        <ele>72</ele>
        <time>2020-12-12T21:02:26Z</time>
      </trkpt>
      <trkpt lat="48.37239" lon="2.53095">
        <ele>72</ele>
        <time>2020-12-12T21:02:49Z</time>
      </trkpt>
      <trkpt lat="48.37225" lon="2.53064">
        <ele>73</ele>
        <time>2020-12-12T21:03:22Z</time>
      </trkpt>
      <trkpt lat="48.3719" lon="2.53029">
        <ele>74</ele>
        <time>2020-12-12T21:04:18Z</time>
      </trkpt>
      <trkpt lat="48.37175" lon="2.53006">
        <ele>75</ele>
        <time>2020-12-12T21:04:47Z</time>
      </trkpt>
      <trkpt lat="48.37173" lon="2.53002">
        <ele>75</ele>
        <time>2020-12-12T21:04:52Z</time>
      </trkpt>
      <trkpt lat="48.37167" lon="2.52979">
        <ele>76</ele>
        <time>2020-12-12T21:05:13Z</time>
      </trkpt>
      <trkpt lat="48.3715" lon="2.52944">
        <ele>77</ele>
        <time>2020-12-12T21:05:52Z</time>
      </trkpt>
      <trkpt lat="48.37144" lon="2.52926">
        <ele>77</ele>
        <time>2020-12-12T21:06:10Z</time>
      </trkpt>
      <trkpt lat="48.37139" lon="2.52887">
        <ele>77</ele>
        <time>2020-12-12T21:06:45Z</time>
      </trkpt>
      <trkpt lat="48.37137" lon="2.52848">
        <ele>78</ele>
        <time>2020-12-12T21:07:20Z</time>
      </trkpt>
      <trkpt lat="48.37139" lon="2.52838">
        <ele>78</ele>
        <time>2020-12-12T21:07:29Z</time>
      </trkpt>
      <trkpt lat="48.37142" lon="2.52823">
        <ele>78</ele>
        <time>2020-12-12T21:07:43Z</time>
      </trkpt>
      <trkpt lat="48.37138" lon="2.52804">
        <ele>78</ele>
        <time>2020-12-12T21:08:00Z</time>
      </trkpt>
      <trkpt lat="48.37138" lon="2.52793">
        <ele>78</ele>
        <time>2020-12-12T21:08:10Z</time>
      </trkpt>
      <trkpt lat="48.37145" lon="2.52732">
        <ele>78</ele>
        <time>2020-12-12T21:09:05Z</time>
      </trkpt>
      <trkpt lat="48.37143" lon="2.52717">
        <ele>77</ele>
        <time>2020-12-12T21:09:19Z</time>
      </trkpt>
      <trkpt lat="48.37135" lon="2.52677">
        <ele>77</ele>
        <time>2020-12-12T21:09:56Z</time>
      </trkpt>
      <trkpt lat="48.37117" lon="2.52618">
        <ele>76</ele>
        <time>2020-12-12T21:10:53Z</time>
      </trkpt>
      <trkpt lat="48.37115" lon="2.52604">
        <ele>76</ele>
        <time>2020-12-12T21:11:06Z</time>
      </trkpt>
      <trkpt lat="48.37116" lon="2.52583">
        <ele>75</ele>
        <time>2020-12-12T21:11:25Z</time>
      </trkpt>
      <trkpt lat="48.37123" lon="2.52565">
        <ele>75</ele>
        <time>2020-12-12T21:11:43Z</time>
      </trkpt>
      <trkpt lat="48.37136" lon="2.52552">
        <ele>74</ele>
        <time>2020-12-12T21:12:04Z</time>
      </trkpt>
      <trkpt lat="48.37219" lon="2.52487">
        <ele>75</ele>
        <time>2020-12-12T21:14:09Z</time>
      </trkpt>
      <trkpt lat="48.37237" lon="2.52462">
        <ele>75</ele>
        <time>2020-12-12T21:14:41Z</time>
      </trkpt>
      <trkpt lat="48.3725" lon="2.52481">
        <ele>75</ele>
        <time>2020-12-12T21:15:06Z</time>
      </trkpt>
      <trkpt lat="48.37237" lon="2.52462">
        <ele>75</ele>
        <time>2020-12-12T21:15:30Z</time>
      </trkpt>
      <trkpt lat="48.37238" lon="2.52458">
        <ele>74</ele>
        <time>2020-12-12T21:15:34Z</time>
      </trkpt>
      <trkpt lat="48.37236" lon="2.52444">
        <ele>74</ele>
        <time>2020-12-12T21:15:46Z</time>
      </trkpt>
      <trkpt lat="48.37218" lon="2.52396">
        <ele>75</ele>
        <time>2020-12-12T21:16:35Z</time>
      </trkpt>
      <trkpt lat="48.37184" lon="2.52297">
        <ele>77</ele>
        <time>2020-12-12T21:18:14Z</time>
      </trkpt>
      <trkpt lat="48.37176" lon="2.52253">
        <ele>78</ele>
        <time>2020-12-12T21:18:54Z</time>
      </trkpt>
      <trkpt lat="48.37175" lon="2.5219">
        <ele>77</ele>
        <time>2020-12-12T21:19:50Z</time>
      </trkpt>
      <trkpt lat="48.37168" lon="2.52165">
        <ele>77</ele>
        <time>2020-12-12T21:20:14Z</time>
      </trkpt>
      <trkpt lat="48.37159" lon="2.52058">
        <ele>76</ele>
        <time>2020-12-12T21:21:50Z</time>
      </trkpt>
      <trkpt lat="48.37155" lon="2.52035">
        <ele>76</ele>
        <time>2020-12-12T21:22:11Z</time>
      </trkpt>
      <trkpt lat="48.373" lon="2.51932">
        <ele>77</ele>
        <time>2020-12-12T21:25:45Z</time>
      </trkpt>
      <trkpt lat="48.37323" lon="2.51908">
        <ele>80</ele>
        <time>2020-12-12T21:26:22Z</time>
      </trkpt>
      <trkpt lat="48.37329" lon="2.51894">
        <ele>82</ele>
        <time>2020-12-12T21:26:37Z</time>
      </trkpt>
      <trkpt lat="48.37334" lon="2.51862">
        <ele>85</ele>
        <time>2020-12-12T21:27:06Z</time>
      </trkpt>
      <trkpt lat="48.37343" lon="2.51827">
        <ele>90</ele>
        <time>2020-12-12T21:27:39Z</time>
      </trkpt>
      <trkpt lat="48.37346" lon="2.51823">
        <ele>91</ele>
        <time>2020-12-12T21:27:45Z</time>
      </trkpt>
      <trkpt lat="48.37358" lon="2.51817">
        <ele>94</ele>
        <time>2020-12-12T21:28:02Z</time>
      </trkpt>
      <trkpt lat="48.37366" lon="2.51809">
        <ele>96</ele>
        <time>2020-12-12T21:28:14Z</time>
      </trkpt>
      <trkpt lat="48.37387" lon="2.51781">
        <ele>102</ele>
        <time>2020-12-12T21:28:52Z</time>
      </trkpt>
      <trkpt lat="48.37407" lon="2.51768">
        <ele>106</ele>
        <time>2020-12-12T21:29:21Z</time>
      </trkpt>
      <trkpt lat="48.37418" lon="2.51767">
        <ele>107</ele>
        <time>2020-12-12T21:29:36Z</time>
      </trkpt>
      <trkpt lat="48.37431" lon="2.51772">
        <ele>106</ele>
        <time>2020-12-12T21:29:54Z</time>
      </trkpt>
      <trkpt lat="48.37442" lon="2.51781">
        <ele>105</ele>
        <time>2020-12-12T21:30:10Z</time>
      </trkpt>
      <trkpt lat="48.37454" lon="2.51812">
        <ele>102</ele>
        <time>2020-12-12T21:30:42Z</time>
      </trkpt>
      <trkpt lat="48.37457" lon="2.51827">
        <ele>101</ele>
        <time>2020-12-12T21:30:56Z</time>
      </trkpt>
      <trkpt lat="48.3748" lon="2.51864">
        <ele>96</ele>
        <time>2020-12-12T21:31:41Z</time>
      </trkpt>
      <trkpt lat="48.37493" lon="2.51814">
        <ele>100</ele>
        <time>2020-12-12T21:32:28Z</time>
      </trkpt>
      <trkpt lat="48.3748" lon="2.51864">
        <ele>96</ele>
        <time>2020-12-12T21:33:16Z</time>
      </trkpt>
      <trkpt lat="48.37486" lon="2.51867">
        <ele>95</ele>
        <time>2020-12-12T21:33:25Z</time>
      </trkpt>
      <trkpt lat="48.37503" lon="2.51897">
        <ele>92</ele>
        <time>2020-12-12T21:33:59Z</time>
      </trkpt>
      <trkpt lat="48.37531" lon="2.51935">
        <ele>86</ele>
        <time>2020-12-12T21:34:50Z</time>
      </trkpt>
      <trkpt lat="48.37557" lon="2.51996">
        <ele>79</ele>
        <time>2020-12-12T21:35:54Z</time>
      </trkpt>
      <trkpt lat="48.3757" lon="2.51972">
        <ele>81</ele>
        <time>2020-12-12T21:36:21Z</time>
      </trkpt>
      <trkpt lat="48.37599" lon="2.51864">
        <ele>83</ele>
        <time>2020-12-12T21:38:05Z</time>
      </trkpt>
      <trkpt lat="48.37619" lon="2.51763">
        <ele>80</ele>
        <time>2020-12-12T21:39:38Z</time>
      </trkpt>
      <trkpt lat="48.37638" lon="2.51618">
        <ele>75</ele>
        <time>2020-12-12T21:41:49Z</time>
      </trkpt>
      <trkpt lat="48.37664" lon="2.51567">
        <ele>73</ele>
        <time>2020-12-12T21:42:46Z</time>
      </trkpt>
      <trkpt lat="48.37687" lon="2.51486">
        <ele>73</ele>
        <time>2020-12-12T21:44:04Z</time>
      </trkpt>
      <trkpt lat="48.37746" lon="2.51574">
        <ele>73</ele>
        <time>2020-12-12T21:45:55Z</time>
      </trkpt>
      <trkpt lat="48.37797" lon="2.51663">
        <ele>73</ele>
        <time>2020-12-12T21:47:39Z</time>
      </trkpt>
      <trkpt lat="48.37943" lon="2.51879">
        <ele>69</ele>
        <time>2020-12-12T21:52:12Z</time>
      </trkpt>
      <trkpt lat="48.37956" lon="2.51896">
        <ele>69</ele>
        <time>2020-12-12T21:52:35Z</time>
      </trkpt>
      <trkpt lat="48.37992" lon="2.51952">
        <ele>70</ele>
        <time>2020-12-12T21:53:44Z</time>
      </trkpt>
      <trkpt lat="48.38026" lon="2.51999">
        <ele>70</ele>
        <time>2020-12-12T21:54:46Z</time>
      </trkpt>
      <trkpt lat="48.38093" lon="2.52098">
        <ele>70</ele>
        <time>2020-12-12T21:56:51Z</time>
      </trkpt>
      <trkpt lat="48.38069" lon="2.5212">
        <ele>70</ele>
        <time>2020-12-12T21:57:29Z</time>
      </trkpt>
      <trkpt lat="48.38045" lon="2.52138">
        <ele>71</ele>
        <time>2020-12-12T21:58:05Z</time>
      </trkpt>
      <trkpt lat="48.38006" lon="2.52153">
        <ele>71</ele>
        <time>2020-12-12T21:58:58Z</time>
      </trkpt>
      <trkpt lat="48.37954" lon="2.52176">
        <ele>70</ele>
        <time>2020-12-12T22:00:11Z</time>
      </trkpt>
      <trkpt lat="48.37933" lon="2.52188">
        <ele>70</ele>
        <time>2020-12-12T22:00:41Z</time>
      </trkpt>
      <trkpt lat="48.37905" lon="2.52222">
        <ele>70</ele>
        <time>2020-12-12T22:01:29Z</time>
      </trkpt>
      <trkpt lat="48.3786" lon="2.52253">
        <ele>70</ele>
        <time>2020-12-12T22:02:35Z</time>
      </trkpt>
      <trkpt lat="48.37842" lon="2.52269">
        <ele>71</ele>
        <time>2020-12-12T22:03:03Z</time>
      </trkpt>
      <trkpt lat="48.37826" lon="2.52287">
        <ele>71</ele>
        <time>2020-12-12T22:03:29Z</time>
      </trkpt>
      <trkpt lat="48.3784" lon="2.523">
        <ele>71</ele>
        <time>2020-12-12T22:03:51Z</time>
      </trkpt>
      <trkpt lat="48.37892" lon="2.52308">
        <ele>73</ele>
        <time>2020-12-12T22:05:01Z</time>
      </trkpt>
      <trkpt lat="48.37924" lon="2.52305">
        <ele>73</ele>
        <time>2020-12-12T22:05:44Z</time>
      </trkpt>
      <trkpt lat="48.37981" lon="2.52322">
        <ele>72</ele>
        <time>2020-12-12T22:07:01Z</time>
      </trkpt>
      <trkpt lat="48.38014" lon="2.52335">
        <ele>71</ele>
        <time>2020-12-12T22:07:47Z</time>
      </trkpt>
      <trkpt lat="48.38027" lon="2.52347">
        <ele>70</ele>
        <time>2020-12-12T22:08:07Z</time>
      </trkpt>
      <trkpt lat="48.38102" lon="2.52459">
        <ele>70</ele>
        <time>2020-12-12T22:10:28Z</time>
      </trkpt>
      <trkpt lat="48.38155" lon="2.52509">
        <ele>70</ele>
        <time>2020-12-12T22:11:52Z</time>
      </trkpt>
      <trkpt lat="48.38175" lon="2.52506">
        <ele>69</ele>
        <time>2020-12-12T22:12:18Z</time>
      </trkpt>
      <trkpt lat="48.38215" lon="2.52481">
        <ele>69</ele>
        <time>2020-12-12T22:13:16Z</time>
      </trkpt>
      <trkpt lat="48.38292" lon="2.52483">
        <ele>71</ele>
        <time>2020-12-12T22:14:59Z</time>
      </trkpt>
      <trkpt lat="48.38292" lon="2.52492">
        <ele>71</ele>
        <time>2020-12-12T22:15:07Z</time>
      </trkpt>
      <trkpt lat="48.38293" lon="2.52511">
        <ele>71</ele>
        <time>2020-12-12T22:15:24Z</time>
      </trkpt>
      <trkpt lat="48.38304" lon="2.52549">
        <ele>71</ele>
        <time>2020-12-12T22:16:01Z</time>
      </trkpt>
      <trkpt lat="48.38323" lon="2.52595">
        <ele>72</ele>
        <time>2020-12-12T22:16:49Z</time>
      </trkpt>
      <trkpt lat="48.38335" lon="2.52626">
        <ele>73</ele>
        <time>2020-12-12T22:17:20Z</time>
      </trkpt>
      <trkpt lat="48.38341" lon="2.52655">
        <ele>74</ele>
        <time>2020-12-12T22:17:47Z</time>
      </trkpt>
      <trkpt lat="48.38342" lon="2.52671">
        <ele>74</ele>
        <time>2020-12-12T22:18:01Z</time>
      </trkpt>
      <trkpt lat="48.38343" lon="2.52695">
        <ele>74</ele>
        <time>2020-12-12T22:18:23Z</time>
      </trkpt>
      <trkpt lat="48.38339" lon="2.52727">
        <ele>73</ele>
        <time>2020-12-12T22:18:52Z</time>
      </trkpt>
      <trkpt lat="48.38339" lon="2.52743">
        <ele>73</ele>
        <time>2020-12-12T22:19:06Z</time>
      </trkpt>
      <trkpt lat="48.38338" lon="2.52753">
        <ele>73</ele>
        <time>2020-12-12T22:19:15Z</time>
      </trkpt>
      <trkpt lat="48.38329" lon="2.52782">
        <ele>73</ele>
        <time>2020-12-12T22:19:43Z</time>
      </trkpt>
      <trkpt lat="48.38328" lon="2.52831">
        <ele>74</ele>
        <time>2020-12-12T22:20:27Z</time>
      </trkpt>
      <trkpt lat="48.38326" lon="2.52846">
        <ele>74</ele>
        <time>2020-12-12T22:20:40Z</time>
      </trkpt>
      <trkpt lat="48.38321" lon="2.5292">
        <ele>75</ele>
        <time>2020-12-12T22:21:46Z</time>
      </trkpt>
      <trkpt lat="48.38295" lon="2.53218">
        <ele>72</ele>
        <time>2020-12-12T22:26:12Z</time>
      </trkpt>
      <trkpt lat="48.38294" lon="2.53246">
        <ele>72</ele>
        <time>2020-12-12T22:26:37Z</time>
      </trkpt>
      <trkpt lat="48.38293" lon="2.5326">
        <ele>72</ele>
        <time>2020-12-12T22:26:50Z</time>
      </trkpt>
      <trkpt lat="48.3829" lon="2.53278">
        <ele>72</ele>
        <time>2020-12-12T22:27:06Z</time>
      </trkpt>
      <trkpt lat="48.38289" lon="2.53284">
        <ele>72</ele>
        <time>2020-12-12T22:27:12Z</time>
      </trkpt>
      <trkpt lat="48.38283" lon="2.5338">
        <ele>72</ele>
        <time>2020-12-12T22:28:37Z</time>
      </trkpt>
      <trkpt lat="48.38278" lon="2.53427">
        <ele>72</ele>
        <time>2020-12-12T22:29:19Z</time>
      </trkpt>
      <trkpt lat="48.38276" lon="2.53484">
        <ele>73</ele>
        <time>2020-12-12T22:30:10Z</time>
      </trkpt>
      <trkpt lat="48.38268" lon="2.53559">
        <ele>73</ele>
        <time>2020-12-12T22:31:17Z</time>
      </trkpt>
      <trkpt lat="48.3826" lon="2.53623">
        <ele>75</ele>
        <time>2020-12-12T22:32:15Z</time>
      </trkpt>
      <trkpt lat="48.38262" lon="2.5363">
        <ele>75</ele>
        <time>2020-12-12T22:32:22Z</time>
      </trkpt>
      <trkpt lat="48.38261" lon="2.53646">
        <ele>75</ele>
        <time>2020-12-12T22:32:36Z</time>
      </trkpt>
      <trkpt lat="48.38261" lon="2.53718">
        <ele>78</ele>
        <time>2020-12-12T22:33:40Z</time>
      </trkpt>
      <trkpt lat="48.3827" lon="2.53805">
        <ele>82</ele>
        <time>2020-12-12T22:34:58Z</time>
      </trkpt>
      <trkpt lat="48.38272" lon="2.53842">
        <ele>83</ele>
        <time>2020-12-12T22:35:31Z</time>
      </trkpt>
      <trkpt lat="48.38268" lon="2.53886">
        <ele>84</ele>
        <time>2020-12-12T22:36:10Z</time>
      </trkpt>
      <trkpt lat="48.38255" lon="2.5397">
        <ele>82</ele>
        <time>2020-12-12T22:37:27Z</time>
      </trkpt>
      <trkpt lat="48.38255" lon="2.53973">
        <ele>82</ele>
        <time>2020-12-12T22:37:29Z</time>
      </trkpt>
      <trkpt lat="48.38257" lon="2.53988">
        <ele>81</ele>
        <time>2020-12-12T22:37:43Z</time>
      </trkpt>
      <trkpt lat="48.38268" lon="2.54015">
        <ele>82</ele>
        <time>2020-12-12T22:38:11Z</time>
      </trkpt>
      <trkpt lat="48.38298" lon="2.54053">
        <ele>84</ele>
        <time>2020-12-12T22:39:03Z</time>
      </trkpt>
      <trkpt lat="48.38303" lon="2.54056">
        <ele>84</ele>
        <time>2020-12-12T22:39:10Z</time>
      </trkpt>
      <trkpt lat="48.38332" lon="2.54072">
        <ele>87</ele>
        <time>2020-12-12T22:39:52Z</time>
      </trkpt>
      <trkpt lat="48.38341" lon="2.54079">
        <ele>89</ele>
        <time>2020-12-12T22:40:05Z</time>
      </trkpt>
      <trkpt lat="48.38346" lon="2.54086">
        <ele>90</ele>
        <time>2020-12-12T22:40:14Z</time>
      </trkpt>
      <trkpt lat="48.38367" lon="2.54121">
        <ele>95</ele>
        <time>2020-12-12T22:40:56Z</time>
      </trkpt>
      <trkpt lat="48.38374" lon="2.54136">
        <ele>97</ele>
        <time>2020-12-12T22:41:12Z</time>
      </trkpt>
      <trkpt lat="48.38383" lon="2.54161">
        <ele>98</ele>
        <time>2020-12-12T22:41:37Z</time>
      </trkpt>
      <trkpt lat="48.38393" lon="2.5418">
        <ele>101</ele>
        <time>2020-12-12T22:41:59Z</time>
      </trkpt>
      <trkpt lat="48.38403" lon="2.54193">
        <ele>103</ele>
        <time>2020-12-12T22:42:17Z</time>
      </trkpt>
      <trkpt lat="48.38407" lon="2.54208">
        <ele>105</ele>
        <time>2020-12-12T22:42:31Z</time>
      </trkpt>
      <trkpt lat="48.38402" lon="2.5423">
        <ele>106</ele>
        <time>2020-12-12T22:42:52Z</time>
      </trkpt>
      <trkpt lat="48.38397" lon="2.54259">
        <ele>108</ele>
        <time>2020-12-12T22:43:18Z</time>
      </trkpt>
      <trkpt lat="48.38399" lon="2.54271">
        <ele>108</ele>
        <time>2020-12-12T22:43:29Z</time>
      </trkpt>
      <trkpt lat="48.38408" lon="2.54279">
        <ele>110</ele>
        <time>2020-12-12T22:43:43Z</time>
      </trkpt>
      <trkpt lat="48.38413" lon="2.54287">
        <ele>110</ele>
        <time>2020-12-12T22:43:53Z</time>
      </trkpt>
      <trkpt lat="48.38416" lon="2.54301">
        <ele>111</ele>
        <time>2020-12-12T22:44:06Z</time>
      </trkpt>
      <trkpt lat="48.38419" lon="2.54325">
        <ele>113</ele>
        <time>2020-12-12T22:44:27Z</time>
      </trkpt>
      <trkpt lat="48.38423" lon="2.54337">
        <ele>114</ele>
        <time>2020-12-12T22:44:39Z</time>
      </trkpt>
      <trkpt lat="48.38424" lon="2.5435">
        <ele>115</ele>
        <time>2020-12-12T22:44:51Z</time>
      </trkpt>
      <trkpt lat="48.38423" lon="2.54378">
        <ele>116</ele>
        <time>2020-12-12T22:45:16Z</time>
      </trkpt>
      <trkpt lat="48.38425" lon="2.54411">
        <ele>118</ele>
        <time>2020-12-12T22:45:45Z</time>
      </trkpt>
      <trkpt lat="48.38428" lon="2.54421">
        <ele>118</ele>
        <time>2020-12-12T22:45:55Z</time>
      </trkpt>
      <trkpt lat="48.38441" lon="2.54456">
        <ele>118</ele>
        <time>2020-12-12T22:46:30Z</time>
      </trkpt>
      <trkpt lat="48.38454" lon="2.5452">
        <ele>119</ele>
        <time>2020-12-12T22:47:30Z</time>
      </trkpt>
      <trkpt lat="48.38459" lon="2.54538">
        <ele>119</ele>
        <time>2020-12-12T22:47:47Z</time>
      </trkpt>
      <trkpt lat="48.38471" lon="2.54573">
        <ele>119</ele>
        <time>2020-12-12T22:48:22Z</time>
      </trkpt>
      <trkpt lat="48.38479" lon="2.54587">
        <ele>119</ele>
        <time>2020-12-12T22:48:38Z</time>
      </trkpt>
      <trkpt lat="48.38487" lon="2.54609">
        <ele>118</ele>
        <time>2020-12-12T22:49:00Z</time>
      </trkpt>
      <trkpt lat="48.3849" lon="2.54617">
        <ele>118</ele>
        <time>2020-12-12T22:49:09Z</time>
      </trkpt>
      <trkpt lat="48.38501" lon="2.54645">
        <ele>117</ele>
        <time>2020-12-12T22:49:37Z</time>
      </trkpt>
      <trkpt lat="48.38534" lon="2.54719">
        <ele>116</ele>
        <time>2020-12-12T22:50:56Z</time>
      </trkpt>
      <trkpt lat="48.38543" lon="2.54744">
        <ele>116</ele>
        <time>2020-12-12T22:51:22Z</time>
      </trkpt>
      <trkpt lat="48.38557" lon="2.54768">
        <ele>116</ele>
        <time>2020-12-12T22:51:50Z</time>
      </trkpt>
      <trkpt lat="48.38583" lon="2.54788">
        <ele>116</ele>
        <time>2020-12-12T22:52:29Z</time>
      </trkpt>
      <trkpt lat="48.38586" lon="2.54795">
        <ele>117</ele>
        <time>2020-12-12T22:52:36Z</time>
      </trkpt>
      <trkpt lat="48.38587" lon="2.5482">
        <ele>118</ele>
        <time>2020-12-12T22:52:59Z</time>
      </trkpt>
      <trkpt lat="48.38559" lon="2.5499">
        <ele>118</ele>
        <time>2020-12-12T22:55:34Z</time>
      </trkpt>
      <trkpt lat="48.38548" lon="2.55045">
        <ele>118</ele>
        <time>2020-12-12T22:56:25Z</time>
      </trkpt>
      <trkpt lat="48.38516" lon="2.55156">
        <ele>119</ele>
        <time>2020-12-12T22:58:12Z</time>
      </trkpt>
      <trkpt lat="48.38516" lon="2.5517">
        <ele>120</ele>
        <time>2020-12-12T22:58:24Z</time>
      </trkpt>
      <trkpt lat="48.38517" lon="2.55239">
        <ele>119</ele>
        <time>2020-12-12T22:59:25Z</time>
      </trkpt>
      <trkpt lat="48.38485" lon="2.55528">
        <ele>112</ele>
        <time>2020-12-12T23:03:45Z</time>
      </trkpt>
      <trkpt lat="48.38422" lon="2.55776">
        <ele>107</ele>
        <time>2020-12-12T23:07:40Z</time>
      </trkpt>
      <trkpt lat="48.38421" lon="2.55835">
        <ele>105</ele>
        <time>2020-12-12T23:08:33Z</time>
      </trkpt>
      <trkpt lat="48.38422" lon="2.55853">
        <ele>105</ele>
        <time>2020-12-12T23:08:49Z</time>
      </trkpt>
      <trkpt lat="48.38408" lon="2.5591">
        <ele>107</ele>
        <time>2020-12-12T23:09:43Z</time>
      </trkpt>
      <trkpt lat="48.38411" lon="2.55922">
        <ele>107</ele>
        <time>2020-12-12T23:09:54Z</time>
      </trkpt>
      <trkpt lat="48.38417" lon="2.55934">
        <ele>106</ele>
        <time>2020-12-12T23:10:07Z</time>
      </trkpt>
      <trkpt lat="48.38423" lon="2.55938">
        <ele>107</ele>
        <time>2020-12-12T23:10:16Z</time>
      </trkpt>
      <trkpt lat="48.38439" lon="2.55939">
        <ele>107</ele>
        <time>2020-12-12T23:10:37Z</time>
      </trkpt>
      <trkpt lat="48.38516" lon="2.55925">
        <ele>107</ele>
        <time>2020-12-12T23:12:21Z</time>
      </trkpt>
      <trkpt lat="48.38538" lon="2.55917">
        <ele>107</ele>
        <time>2020-12-12T23:12:51Z</time>
      </trkpt>
      <trkpt lat="48.38561" lon="2.55901">
        <ele>106</ele>
        <time>2020-12-12T23:13:25Z</time>
      </trkpt>
      <trkpt lat="48.38588" lon="2.55876">
        <ele>104</ele>
        <time>2020-12-12T23:14:07Z</time>
      </trkpt>
      <trkpt lat="48.38606" lon="2.55853">
        <ele>101</ele>
        <time>2020-12-12T23:14:39Z</time>
      </trkpt>
      <trkpt lat="48.38615" lon="2.55837">
        <ele>100</ele>
        <time>2020-12-12T23:14:57Z</time>
      </trkpt>
      <trkpt lat="48.3863" lon="2.55801">
        <ele>97</ele>
        <time>2020-12-12T23:15:35Z</time>
      </trkpt>
      <trkpt lat="48.38638" lon="2.55791">
        <ele>96</ele>
        <time>2020-12-12T23:15:49Z</time>
      </trkpt>
      <trkpt lat="48.38643" lon="2.55789">
        <ele>96</ele>
        <time>2020-12-12T23:15:56Z</time>
      </trkpt>
      <trkpt lat="48.38651" lon="2.55791">
        <ele>95</ele>
        <time>2020-12-12T23:16:07Z</time>
      </trkpt>
      <trkpt lat="48.38661" lon="2.55799">
        <ele>94</ele>
        <time>2020-12-12T23:16:22Z</time>
      </trkpt>
      <trkpt lat="48.38676" lon="2.55828">
        <ele>91</ele>
        <time>2020-12-12T23:16:54Z</time>
      </trkpt>
      <trkpt lat="48.38703" lon="2.55902">
        <ele>86</ele>
        <time>2020-12-12T23:18:09Z</time>
      </trkpt>
      <trkpt lat="48.38724" lon="2.55936">
        <ele>84</ele>
        <time>2020-12-12T23:18:50Z</time>
      </trkpt>
      <trkpt lat="48.38732" lon="2.55953">
        <ele>83</ele>
        <time>2020-12-12T23:19:09Z</time>
      </trkpt>
      <trkpt lat="48.38737" lon="2.55974">
        <ele>82</ele>
        <time>2020-12-12T23:19:28Z</time>
      </trkpt>
      <trkpt lat="48.38747" lon="2.55996">
        <ele>80</ele>
        <time>2020-12-12T23:19:52Z</time>
      </trkpt>
      <trkpt lat="48.38765" lon="2.56027">
        <ele>79</ele>
        <time>2020-12-12T23:20:29Z</time>
      </trkpt>
      <trkpt lat="48.38768" lon="2.56044">
        <ele>79</ele>
        <time>2020-12-12T23:20:44Z</time>
      </trkpt>
      <trkpt lat="48.38769" lon="2.56085">
        <ele>79</ele>
        <time>2020-12-12T23:21:21Z</time>
      </trkpt>
    </trkseg>
  </trk>
</gpx>